Time;durP1;ratioP1;P1;durP2;ratioP2;P2;SDS_P1;SDS_P2;PMS_P1;PMS_P2;Temp;Humidity;BMP_temperature;BMP_pressure;BME280_temperature;BME280_humidity;BME280_pressure;Samples;Min_cycle;Max_cycle;Signal;HPM_P1;HPM_P2
2022/12/10 00:01:51;;;;;;;0.28;0.28;;;;;;;10.95;66.53;98265.44;4463815;31;32145;-82
2022/12/10 00:04:20;;;;;;;2.00;1.90;;;;;;;10.91;66.53;98269.25;4479037;31;33964;-83
2022/12/10 00:06:48;;;;;;;1.10;1.10;;;;;;;10.81;66.89;98261.13;4466828;31;34155;-83
2022/12/10 00:09:18;;;;;;;1.83;1.58;;;;;;;10.70;67.40;98261.03;4479649;31;32783;-83
2022/12/10 00:11:50;;;;;;;1.58;1.48;;;;;;;10.43;68.20;98272.50;4468534;31;32747;-83
2022/12/10 00:14:22;;;;;;;0.88;0.73;;;;;;;10.31;68.76;98272.50;4477559;31;32243;-83
2022/12/10 00:16:50;;;;;;;0.45;0.43;;;;;;;10.45;68.41;98286.47;4449395;31;633594;-83
2022/12/10 00:19:20;;;;;;;1.00;1.00;;;;;;;10.38;68.76;98298.34;4475779;31;33750;-83
2022/12/10 00:21:48;;;;;;;2.30;1.77;;;;;;;10.32;68.78;98298.78;4477209;31;33662;-82
2022/12/10 00:24:16;;;;;;;1.52;0.98;;;;;;;10.33;68.78;98303.09;4477611;31;33964;-82
2022/12/10 00:26:45;;;;;;;0.93;0.93;;;;;;;10.48;68.61;98293.31;4475641;31;32931;-82
2022/12/10 00:29:13;;;;;;;4.05;2.90;;;;;;;10.53;68.38;98299.13;4479794;31;34169;-83
2022/12/10 00:31:41;;;;;;;0.17;0.17;;;;;;;10.65;67.90;98305.38;4468817;31;32134;-82
2022/12/10 00:34:11;;;;;;;1.40;1.30;;;;;;;10.55;68.64;98299.88;4466093;31;33001;-83
2022/12/10 00:36:45;;;;;;;1.60;1.08;;;;;;;10.59;68.38;98305.81;4468048;31;32357;-82
2022/12/10 00:39:15;;;;;;;0.82;0.82;;;;;;;10.62;68.82;98308.22;4452864;31;32332;-83
2022/12/10 00:41:44;;;;;;;2.20;1.70;;;;;;;10.60;69.85;98318.03;4464229;31;32809;-83
2022/12/10 00:44:12;;;;;;;1.48;1.37;;;;;;;10.43;70.89;98309.44;4465695;31;33808;-82
2022/12/10 00:46:40;;;;;;;1.70;1.55;;;;;;;10.59;70.63;98305.81;4469476;31;32990;-82
2022/12/10 00:49:08;;;;;;;2.10;1.67;;;;;;;10.46;71.42;98311.88;4477540;31;33637;-82
2022/12/10 00:51:37;;;;;;;1.42;1.42;;;;;;;10.58;71.20;98319.91;4463246;31;32855;-82
2022/12/10 00:54:05;;;;;;;3.25;1.58;;;;;;;10.59;71.18;98316.34;4476361;31;33612;-82
2022/12/10 00:56:34;;;;;;;1.08;1.02;;;;;;;10.21;72.75;98330.28;4467571;31;32702;-82
2022/12/10 00:59:02;;;;;;;1.02;1.02;;;;;;;10.16;73.04;98320.03;4467533;31;33129;-83
2022/12/10 01:01:36;;;;;;;1.45;0.93;;;;;;;10.34;72.31;98325.88;4465068;31;33506;-82
2022/12/10 01:04:09;;;;;;;1.08;1.08;;;;;;;10.66;71.12;98322.91;4467814;31;35659;-82
2022/12/10 01:06:45;;;;;;;1.05;1.05;;;;;;;10.74;70.59;98328.50;4481606;31;33345;-81
2022/12/10 01:09:16;;;;;;;1.50;0.82;;;;;;;10.80;70.52;98336.00;4478980;31;34063;-81
2022/12/10 01:11:46;;;;;;;1.27;1.10;;;;;;;10.76;70.81;98329.25;4464587;31;31757;-81
2022/12/10 01:14:28;;;;;;;1.08;0.98;;;;;;;10.86;70.46;98332.94;4452526;31;32488;-81
2022/12/10 01:17:04;;;;;;;3.85;2.28;;;;;;;10.92;70.15;98335.19;4479042;31;33096;-81
2022/12/10 01:19:36;;;;;;;0.95;0.95;;;;;;;10.83;70.28;98343.72;4480116;31;31570;-82
2022/12/10 01:22:04;;;;;;;;;;;;;;;11.05;69.80;98339.59;4483517;31;34210;-81
2022/12/10 01:24:35;;;;;;;0.75;0.73;;;;;;;10.97;69.85;98348.91;4479965;31;34217;-81
2022/12/10 01:27:03;;;;;;;4.00;0.62;;;;;;;10.89;70.18;98340.66;4466950;31;35425;-81
2022/12/10 01:29:31;;;;;;;2.67;2.00;;;;;;;10.99;69.74;98327.69;4454507;31;32129;-82
2022/12/10 01:32:00;;;;;;;1.90;1.80;;;;;;;10.99;69.64;98344.38;4456747;31;32422;-83
2022/12/10 01:34:29;;;;;;;0.25;0.25;;;;;;;10.86;70.06;98345.31;4477095;31;32277;-82
2022/12/10 01:36:57;;;;;;;3.33;1.92;;;;;;;11.03;69.63;98332.66;4479647;31;34158;-82
2022/12/10 01:39:25;;;;;;;0.25;0.25;;;;;;;11.23;68.78;98343.62;4467351;31;33684;-83
2022/12/10 01:41:55;;;;;;;8.25;2.78;;;;;;;11.35;68.35;98331.37;4476220;31;33516;-83
2022/12/10 01:44:24;;;;;;;1.83;1.73;;;;;;;11.30;68.40;98339.63;4454370;31;32816;-83
2022/12/10 01:46:59;;;;;;;0.62;0.62;;;;;;;11.29;68.42;98341.38;4480651;31;33885;-83
2022/12/10 01:49:38;;;;;;;0.45;0.45;;;;;;;10.96;69.26;98341.91;4467609;31;32571;-83
2022/12/10 01:52:10;;;;;;;1.50;1.40;;;;;;;10.87;69.65;98352.28;4466310;31;31696;-83
2022/12/10 01:54:43;;;;;;;0.75;0.75;;;;;;;10.89;69.71;98355.66;4479183;31;35633;-83
2022/12/10 01:57:14;;;;;;;9.77;2.53;;;;;;;11.02;69.47;98353.88;4480969;31;34435;-83
2022/12/10 01:59:43;;;;;;;3.15;1.90;;;;;;;10.93;69.63;98360.63;4456026;31;33771;-82
2022/12/10 02:02:14;;;;;;;1.65;1.20;;;;;;;11.08;68.86;98360.53;4479497;31;32308;-83
2022/12/10 02:05:04;;;;;;;0.77;0.77;;;;;;;11.07;69.10;98361.50;4479109;31;33913;-83
2022/12/10 02:07:51;;;;;;;1.52;1.02;;;;;;;10.95;69.32;98361.38;4479923;31;32105;-83
2022/12/10 02:10:40;;;;;;;1.02;0.85;;;;;;;10.93;69.31;98365.91;4480693;31;32998;-83
2022/12/10 02:13:18;;;;;;;0.45;0.45;;;;;;;10.52;69.75;98385.37;4467350;31;32799;-82
2022/12/10 02:15:52;;;;;;;0.22;0.22;;;;;;;10.56;69.97;98385.19;4468166;31;32966;-83
2022/12/10 02:18:26;;;;;;;0.10;0.10;;;;;;;10.30;70.37;98385.06;4478689;31;32654;-83
2022/12/10 02:20:59;;;;;;;0.00;0.00;;;;;;;10.31;70.22;98385.94;4466900;31;33286;-83
2022/12/10 02:23:29;;;;;;;1.05;1.00;;;;;;;10.08;71.14;98390.88;4478162;31;32477;-83
2022/12/10 02:26:22;;;;;;;0.70;0.40;;;;;;;10.28;70.03;98391.41;4464095;31;33354;-83
2022/12/10 02:29:11;;;;;;;0.20;0.20;;;;;;;9.97;71.16;98388.09;4468428;31;32887;-83
2022/12/10 02:31:43;;;;;;;0.40;0.40;;;;;;;10.05;70.06;98391.06;4478105;31;33577;-83
2022/12/10 02:34:13;;;;;;;0.00;0.00;;;;;;;10.25;69.64;98376.63;4479560;31;33856;-83
2022/12/10 02:36:44;;;;;;;0.00;0.00;;;;;;;10.30;69.45;98379.78;4478898;31;34534;-83
2022/12/10 02:39:19;;;;;;;0.65;0.60;;;;;;;10.16;69.42;98380.69;4477117;31;32549;-83
2022/12/10 02:41:52;;;;;;;0.45;0.43;;;;;;;9.72;70.93;98378.22;4469434;31;35794;-83
2022/12/10 02:44:23;;;;;;;0.45;0.32;;;;;;;9.65;71.04;98376.94;4479261;31;32896;-83
2022/12/10 02:46:55;;;;;;;0.85;0.85;;;;;;;9.75;70.89;98370.97;4466338;31;33347;-82
2022/12/10 02:49:26;;;;;;;0.25;0.25;;;;;;;9.60;70.93;98365.84;4467307;31;34128;-83
2022/12/10 02:51:54;;;;;;;0.82;0.82;;;;;;;10.05;69.82;98375.25;4452462;31;32262;-83
2022/12/10 02:54:39;;;;;;;2.17;1.08;;;;;;;10.12;69.27;98375.72;4476689;31;32548;-82
2022/12/10 02:57:30;;;;;;;0.20;0.20;;;;;;;10.18;68.83;98370.03;4478537;31;33051;-83
2022/12/10 03:00:07;;;;;;;0.77;0.70;;;;;;;9.73;70.19;98385.19;4469297;31;33374;-83
2022/12/10 03:03:09;;;;;;;0.00;0.00;;;;;;;9.91;69.52;98378.75;4479911;31;32838;-82
2022/12/10 03:05:52;;;;;;;0.87;0.67;;;;;;;9.71;70.17;98379.16;4479623;31;35131;-83
2022/12/10 03:08:24;;;;;;;4.03;1.30;;;;;;;9.49;70.65;98379.66;4466874;31;34096;-84
2022/12/10 03:11:12;;;;;;;0.10;0.10;;;;;;;9.51;70.74;98384.84;4480409;31;33925;-84
2022/12/10 03:13:48;;;;;;;0.62;0.55;;;;;;;9.75;69.86;98399.13;4479028;31;33175;-84
2022/12/10 03:16:17;;;;;;;0.73;0.52;;;;;;;9.55;70.38;98403.00;4479379;31;32776;-84
2022/12/10 03:18:48;;;;;;;0.35;0.35;;;;;;;9.40;70.68;98404.81;4478045;31;33650;-83
2022/12/10 03:21:17;;;;;;;0.55;0.55;;;;;;;9.29;71.07;98407.22;4464900;31;33084;-83
2022/12/10 03:23:46;;;;;;;0.73;0.55;;;;;;;9.36;70.49;98411.19;4465360;31;32719;-83
2022/12/10 03:26:16;;;;;;;0.37;0.25;;;;;;;9.25;70.98;98410.97;4468506;31;32352;-84
2022/12/10 03:28:50;;;;;;;0.25;0.25;;;;;;;9.30;70.45;98408.91;4482218;31;34260;-84
2022/12/10 03:31:19;;;;;;;0.40;0.40;;;;;;;9.31;70.51;98410.63;4478505;31;33143;-84
2022/12/10 03:33:48;;;;;;;0.03;0.03;;;;;;;9.39;70.27;98403.09;4467206;31;33841;-84
2022/12/10 03:36:18;;;;;;;0.40;0.40;;;;;;;9.62;69.32;98408.72;4468362;31;32673;-82
2022/12/10 03:38:47;;;;;;;0.22;0.20;;;;;;;9.42;70.02;98412.59;4477434;31;34413;-81
2022/12/10 03:41:17;;;;;;;4.80;0.30;;;;;;;9.21;70.21;98406.84;4464613;31;33329;-82
2022/12/10 03:43:57;;;;;;;0.00;0.00;;;;;;;9.31;69.57;98408.00;4479171;31;33654;-82
2022/12/10 03:46:27;;;;;;;0.62;0.57;;;;;;;9.45;68.98;98410.63;4465720;31;32466;-82
2022/12/10 03:48:56;;;;;;;0.00;0.00;;;;;;;9.22;69.64;98419.09;4464370;31;33501;-82
2022/12/10 03:51:23;;;;;;;0.62;0.43;;;;;;;9.23;69.32;98413.72;4474894;31;33894;-81
2022/12/10 03:53:53;;;;;;;0.00;0.00;;;;;;;9.20;69.85;98423.56;4478858;31;32247;-82
2022/12/10 03:56:22;;;;;;;0.45;0.45;;;;;;;9.45;68.48;98431.72;4478704;31;33476;-83
2022/12/10 03:58:50;;;;;;;0.35;0.35;;;;;;;9.20;69.61;98426.22;4462305;31;34913;-82
2022/12/10 04:01:18;;;;;;;0.98;0.98;;;;;;;9.60;67.84;98427.28;4467750;31;33153;-82
2022/12/10 04:03:46;;;;;;;0.65;0.65;;;;;;;9.27;68.89;98424.91;4482699;31;34019;-82
2022/12/10 04:06:17;;;;;;;0.28;0.28;;;;;;;9.28;69.02;98426.59;4467105;31;33432;-82
2022/12/10 04:08:46;;;;;;;0.20;0.20;;;;;;;9.05;69.94;98429.75;4466973;31;33924;-82
2022/12/10 04:11:15;;;;;;;3.15;1.05;;;;;;;9.07;70.11;98439.28;4465216;31;33154;-84
2022/12/10 04:16:31;;;;;;;0.20;0.20;;;;;;;9.22;69.70;98445.41;4478929;31;34311;-82
2022/12/10 04:19:11;;;;;;;0.65;0.65;;;;;;;8.95;70.37;98450.53;4477872;31;35613;-83
2022/12/10 04:27:18;;;;;;;0.10;0.10;;;;;;;9.16;69.36;98454.53;4478887;31;34453;-82
2022/12/10 04:29:46;;;;;;;2.42;0.60;;;;;;;9.19;69.31;98449.06;4479041;31;34019;-82
2022/12/10 04:32:15;;;;;;;0.00;0.00;;;;;;;9.37;68.76;98447.13;4476024;31;33592;-82
2022/12/10 04:34:43;;;;;;;0.10;0.10;;;;;;;9.01;70.20;98446.69;4464837;31;31588;-82
2022/12/10 04:37:15;;;;;;;1.20;1.08;;;;;;;9.35;68.80;98443.75;4450369;31;32678;-83
2022/12/10 04:39:43;;;;;;;0.37;0.37;;;;;;;9.08;69.94;98434.84;4476723;31;32113;-82
2022/12/10 04:42:11;;;;;;;1.08;0.98;;;;;;;9.37;68.70;98433.94;4478544;31;33178;-83
2022/12/10 04:44:39;;;;;;;4.37;2.22;;;;;;;9.42;68.27;98434.53;4458234;31;32133;-81
2022/12/10 04:47:09;;;;;;;0.77;0.77;;;;;;;9.34;68.69;98433.28;4482521;31;33897;-82
2022/12/10 04:49:39;;;;;;;1.67;0.98;;;;;;;9.30;68.75;98439.69;4467819;31;32907;-81
2022/12/10 04:52:10;;;;;;;0.25;0.25;;;;;;;9.11;69.28;98440.75;4467434;31;36498;-81
2022/12/10 04:54:37;;;;;;;0.85;0.85;;;;;;;9.11;69.40;98437.28;4464738;31;31181;-81
2022/12/10 04:57:06;;;;;;;2.78;2.58;;;;;;;8.78;70.45;98425.16;4477115;31;34149;-81
2022/12/10 04:59:36;;;;;;;0.15;0.15;;;;;;;8.91;69.73;98423.53;4475378;31;34232;-81
2022/12/10 05:02:05;;;;;;;0.62;0.62;;;;;;;8.89;70.26;98425.41;4466176;31;34216;-81
2022/12/10 05:04:34;;;;;;;1.27;1.05;;;;;;;8.89;70.08;98425.41;4489855;31;33519;-81
2022/12/10 05:07:04;;;;;;;0.30;0.30;;;;;;;8.80;70.42;98431.22;4477836;31;34630;-81
2022/12/10 05:09:32;;;;;;;0.32;0.32;;;;;;;8.49;71.54;98445.25;4479388;31;33517;-81
2022/12/10 05:12:04;;;;;;;0.13;0.13;;;;;;;8.54;71.66;98456.38;4465369;31;33212;-81
2022/12/10 05:14:32;;;;;;;0.47;0.30;;;;;;;8.78;70.09;98453.28;4463701;31;33403;-81
2022/12/10 05:17:01;;;;;;;1.12;1.05;;;;;;;8.96;69.87;98453.06;4475906;31;33484;-81
2022/12/10 05:19:31;;;;;;;0.28;0.28;;;;;;;8.74;70.72;98465.78;4464763;31;33602;-82
2022/12/10 05:24:58;;;;;;;0.60;0.60;;;;;;;8.70;70.92;98470.38;4452438;31;31589;-82
2022/12/10 05:27:31;;;;;;;0.62;0.62;;;;;;;8.42;71.58;98478.97;4463469;31;33038;-82
2022/12/10 05:30:00;;;;;;;3.20;0.70;;;;;;;8.84;70.03;98479.25;4476293;31;34998;-82
2022/12/10 05:32:34;;;;;;;0.60;0.35;;;;;;;8.77;70.19;98483.16;4476956;31;32443;-82
2022/12/10 05:35:03;;;;;;;3.03;0.80;;;;;;;8.56;70.52;98480.84;4452923;31;31352;-83
2022/12/10 05:37:30;;;;;;;2.78;0.43;;;;;;;8.70;70.36;98477.41;4478286;31;33182;-83
2022/12/10 05:39:58;;;;;;;1.30;0.88;;;;;;;8.56;70.60;98483.47;4453421;31;32864;-82
2022/12/10 05:42:29;;;;;;;0.40;0.40;;;;;;;8.62;70.20;98492.78;4466819;31;33281;-82
2022/12/10 05:44:57;;;;;;;1.15;1.05;;;;;;;8.93;69.13;98494.53;4476145;31;33444;-84
2022/12/10 05:47:25;;;;;;;0.13;0.13;;;;;;;8.86;69.48;98488.75;4476130;31;33465;-83
2022/12/10 05:49:54;;;;;;;0.40;0.40;;;;;;;8.90;69.58;98482.38;4478548;31;34396;-83
2022/12/10 05:52:23;;;;;;;0.50;0.50;;;;;;;8.80;69.70;98501.44;4465438;31;33492;-82
2022/12/10 05:54:51;;;;;;;1.83;0.52;;;;;;;9.02;68.98;98495.75;4480502;31;32907;-83
2022/12/10 05:57:20;;;;;;;0.08;0.08;;;;;;;9.09;68.75;98479.53;4468428;31;33757;-82
2022/12/10 05:59:48;;;;;;;1.20;1.10;;;;;;;9.36;67.04;98477.06;4462389;31;32564;-82
2022/12/10 06:02:18;;;;;;;0.37;0.30;;;;;;;9.25;67.18;98479.44;4467330;31;33530;-82
2022/12/10 06:04:47;;;;;;;0.47;0.47;;;;;;;9.39;66.97;98492.66;4470968;31;32657;-82
2022/12/10 06:07:17;;;;;;;0.50;0.50;;;;;;;9.12;67.55;98496.94;4471296;31;33755;-82
2022/12/10 06:09:48;;;;;;;0.45;0.45;;;;;;;8.96;68.28;98495.19;4467464;31;33165;-82
2022/12/10 06:12:19;;;;;;;0.50;0.50;;;;;;;8.91;68.73;98497.22;4486200;31;33968;-83
2022/12/10 06:14:48;;;;;;;2.92;1.83;;;;;;;9.00;67.75;98487.09;4468194;31;33105;-84
2022/12/10 06:17:16;;;;;;;0.80;0.80;;;;;;;8.72;68.82;98510.59;4478906;31;33234;-84
2022/12/10 06:19:46;;;;;;;1.00;1.00;;;;;;;8.57;69.17;98510.62;4465424;31;32119;-83
2022/12/10 06:22:17;;;;;;;0.90;0.90;;;;;;;8.61;69.16;98510.34;4465817;31;33863;-83
2022/12/10 06:24:50;;;;;;;1.27;1.20;;;;;;;8.96;67.95;98510.13;4467819;31;33134;-83
2022/12/10 06:27:18;;;;;;;1.00;1.00;;;;;;;8.43;69.40;98524.53;4480505;31;33903;-83
2022/12/10 06:29:47;;;;;;;0.10;0.10;;;;;;;8.76;68.53;98523.59;4451929;32;33083;-83
2022/12/10 06:32:17;;;;;;;1.10;1.10;;;;;;;8.80;68.06;98520.69;4465376;32;33638;-83
2022/12/10 06:34:45;;;;;;;0.20;0.20;;;;;;;8.81;67.90;98519.75;4452194;32;33371;-83
2022/12/10 06:37:15;;;;;;;5.18;0.85;;;;;;;8.60;68.65;98528.88;4450239;32;33952;-83
2022/12/10 06:39:53;;;;;;;1.15;1.15;;;;;;;8.59;68.48;98528.03;4452707;32;31903;-83
2022/12/10 06:42:24;;;;;;;1.83;1.08;;;;;;;8.48;68.81;98525.13;4464288;32;33832;-83
2022/12/10 06:44:59;;;;;;;2.62;0.70;;;;;;;8.49;68.72;98532.06;4464836;32;32661;-83
2022/12/10 06:47:43;;;;;;;0.65;0.30;;;;;;;8.54;68.31;98548.44;4463153;32;31954;-83
2022/12/10 06:50:12;;;;;;;1.35;1.25;;;;;;;8.38;68.27;98540.56;4478895;31;33634;-83
2022/12/10 06:52:53;;;;;;;0.00;0.00;;;;;;;8.08;68.88;98544.84;4478762;31;34561;-83
2022/12/10 06:55:28;;;;;;;0.90;0.90;;;;;;;8.16;68.77;98540.00;4470657;31;32976;-83
2022/12/10 06:57:57;;;;;;;2.07;1.87;;;;;;;8.10;69.03;98540.34;4466382;31;32683;-83
2022/12/10 07:03:08;;;;;;;1.60;1.50;;;;;;;8.19;68.36;98531.94;4476868;31;34359;-83
2022/12/10 07:05:54;;;;;;;4.55;1.85;;;;;;;8.31;67.92;98523.41;4458527;31;32848;-83
2022/12/10 07:08:48;;;;;;;1.02;1.02;;;;;;;7.99;69.15;98524.31;4472331;31;32572;-83
2022/12/10 07:11:22;;;;;;;7.47;2.35;;;;;;;8.18;67.94;98533.75;4470983;31;33599;-83
2022/12/10 07:13:53;;;;;;;1.65;1.25;;;;;;;8.13;68.72;98537.56;4480456;31;33424;-83
2022/12/10 07:16:28;;;;;;;0.82;0.82;;;;;;;8.37;67.58;98532.78;4480027;31;32574;-83
2022/12/10 07:18:59;;;;;;;0.62;0.62;;;;;;;8.72;65.53;98528.16;4469700;31;32779;-82
2022/12/10 07:21:31;;;;;;;1.02;1.02;;;;;;;8.40;66.31;98515.06;4467835;31;34784;-82
2022/12/10 07:24:09;;;;;;;0.73;0.73;;;;;;;8.37;66.28;98522.25;4463972;31;33599;-82
2022/12/10 07:26:45;;;;;;;0.88;0.85;;;;;;;8.18;66.71;98511.84;4477445;31;35141;-83
2022/12/10 07:31:55;;;;;;;3.10;1.30;;;;;;;7.80;68.05;98495.53;4476586;31;31880;-84
2022/12/10 07:34:38;;;;;;;1.48;1.40;;;;;;;7.72;68.61;98493.28;4477652;31;34765;-84
2022/12/10 07:37:10;;;;;;;1.45;1.35;;;;;;;7.34;70.31;98497.91;4465983;31;32288;-83
2022/12/10 07:39:39;;;;;;;2.60;2.37;;;;;;;7.77;69.04;98493.03;4465329;31;36058;-84
2022/12/10 07:42:09;;;;;;;1.00;0.75;;;;;;;7.98;68.02;98504.22;4466369;31;35011;-84
2022/12/10 07:44:42;;;;;;;0.35;0.35;;;;;;;7.96;68.03;98512.16;4476670;31;33974;-84
2022/12/10 07:47:19;;;;;;;1.60;1.35;;;;;;;7.89;67.81;98518.69;4478339;31;32741;-85
2022/12/10 07:49:57;;;;;;;2.28;2.17;;;;;;;7.60;69.30;98531.56;4481829;31;33806;-84
2022/12/10 07:52:27;;;;;;;11.35;1.85;;;;;;;7.90;68.26;98533.53;4477501;31;33094;-84
2022/12/10 07:55:06;;;;;;;0.57;0.57;;;;;;;7.68;69.14;98546.91;4459694;31;32739;-84
2022/12/10 07:57:37;;;;;;;4.93;0.98;;;;;;;7.49;69.26;98543.53;4473279;31;31953;-84
2022/12/10 08:00:12;;;;;;;2.00;1.33;;;;;;;7.88;67.98;98543.25;4460690;31;32971;-84
2022/12/10 08:02:46;;;;;;;1.80;1.27;;;;;;;7.76;67.62;98550.00;4479541;31;32379;-84
2022/12/10 08:05:18;;;;;;;0.03;0.03;;;;;;;7.75;67.70;98543.06;4478003;31;33401;-83
2022/12/10 08:07:47;;;;;;;0.45;0.40;;;;;;;7.91;66.23;98532.59;4467062;31;33125;-83
2022/12/10 08:10:27;;;;;;;0.45;0.28;;;;;;;7.59;67.70;98539.50;4469518;31;35632;-83
2022/12/10 08:12:57;;;;;;;0.43;0.43;;;;;;;7.62;68.01;98540.22;4461715;31;33430;-85
2022/12/10 08:15:28;;;;;;;0.77;0.77;;;;;;;7.65;68.46;98544.47;4476345;31;33373;-85
2022/12/10 08:20:46;;;;;;;2.30;2.17;;;;;;;7.69;68.20;98525.84;4481291;31;33187;-86
2022/12/10 08:23:17;;;;;;;0.57;0.57;;;;;;;7.76;67.69;98528.97;4446114;32;33270;-85
2022/12/10 08:25:49;;;;;;;2.85;2.33;;;;;;;7.51;68.20;98528.56;4446402;32;33302;-85
2022/12/10 08:31:05;;;;;;;0.20;0.20;;;;;;;7.53;69.14;98524.06;4465767;31;31878;-87
2022/12/10 08:33:39;;;;;;;0.28;0.28;;;;;;;7.56;69.16;98523.94;4462109;32;33960;-87
2022/12/10 08:38:48;;;;;;;0.22;0.22;;;;;;;8.14;67.55;98526.09;4464625;31;32454;-87
2022/12/10 08:41:23;;;;;;;4.22;3.92;;;;;;;8.18;67.33;98517.13;4464873;31;32702;-87
2022/12/10 08:43:57;;;;;;;5.25;4.95;;;;;;;8.36;66.82;98528.41;4478357;31;34650;-86
2022/12/10 08:46:26;;;;;;;1.60;1.50;;;;;;;8.13;67.55;98540.19;4467247;31;34386;-86
2022/12/10 08:49:04;;;;;;;1.75;1.58;;;;;;;8.36;66.58;98537.19;4470364;31;32583;-86
2022/12/10 08:51:34;;;;;;;1.10;1.10;;;;;;;8.31;66.37;98546.19;4466902;31;31546;-86
2022/12/10 08:54:04;;;;;;;1.50;1.42;;;;;;;8.16;66.65;98540.00;4467952;31;34017;-87
2022/12/10 08:56:39;;;;;;;0.28;0.25;;;;;;;8.27;66.24;98542.91;4484473;31;35518;-87
2022/12/10 08:59:10;;;;;;;1.80;1.70;;;;;;;8.62;64.04;98542.78;4467662;31;33328;-87
2022/12/10 09:01:39;;;;;;;2.37;2.25;;;;;;;8.44;64.88;98560.41;4479507;31;33910;-87
2022/12/10 09:04:07;;;;;;;4.12;2.05;;;;;;;8.36;65.09;98563.50;4461640;31;32597;-87
2022/12/10 09:06:52;;;;;;;3.70;3.40;;;;;;;8.21;65.25;98559.00;4475842;31;35067;-87
2022/12/10 09:09:27;;;;;;;0.80;0.80;;;;;;;8.27;65.14;98563.94;4482263;31;33912;-87
2022/12/10 09:12:00;;;;;;;3.30;2.55;;;;;;;8.12;65.40;98565.63;4483597;31;33786;-87
2022/12/10 09:14:38;;;;;;;4.35;2.25;;;;;;;7.89;66.18;98569.47;4479324;31;34688;-87
2022/12/10 09:17:06;;;;;;;2.03;1.92;;;;;;;7.86;66.88;98564.34;4467446;31;34680;-87
2022/12/10 09:19:37;;;;;;;2.17;2.03;;;;;;;7.90;66.74;98565.91;4466552;31;33322;-87
2022/12/10 09:22:08;;;;;;;2.80;2.60;;;;;;;7.71;67.21;98559.91;4467145;31;32319;-87
2022/12/10 09:24:36;;;;;;;2.42;2.28;;;;;;;7.57;67.73;98551.88;4483377;31;31738;-87
2022/12/10 09:27:06;;;;;;;3.30;3.00;;;;;;;7.71;67.55;98554.66;4453825;31;33396;-87
2022/12/10 09:29:49;;;;;;;1.95;1.35;;;;;;;7.56;68.16;98555.44;4472328;31;33963;-87
2022/12/10 09:35:12;;;;;;;3.50;1.25;;;;;;;7.75;67.96;98561.44;4481033;31;34767;-87
2022/12/10 09:37:41;;;;;;;2.67;2.03;;;;;;;8.01;67.02;98546.09;4457147;31;33857;-89
2022/12/10 09:40:17;;;;;;;1.75;1.65;;;;;;;7.85;67.27;98546.91;4472446;31;32346;-91
2022/12/10 09:43:15;;;;;;;1.67;1.58;;;;;;;7.77;67.73;98541.19;4405744;32;33623;-92
2022/12/10 09:46:01;;;;;;;4.62;3.65;;;;;;;7.59;68.07;98523.75;4376460;32;32636;-90
2022/12/10 09:51:27;;;;;;;0.85;0.85;;;;;;;7.92;66.77;98506.22;4366924;32;33995;-90
2022/12/10 09:56:45;;;;;;;2.47;2.28;;;;;;;8.04;65.56;98488.09;4392355;32;33652;-92
2022/12/10 09:59:39;;;;;;;3.08;2.55;;;;;;;8.03;65.61;98478.53;4379146;32;32355;-85
2022/12/10 10:02:20;;;;;;;2.58;2.40;;;;;;;7.48;68.29;98490.16;4376815;32;30487;-85
2022/12/10 10:04:55;;;;;;;1.73;1.63;;;;;;;7.63;67.44;98486.72;4393950;32;33630;-85
2022/12/10 10:07:34;;;;;;;4.12;3.60;;;;;;;7.90;67.07;98479.16;4400764;32;34655;-85
2022/12/10 10:13:11;;;;;;;0.85;0.85;;;;;;;7.58;67.88;98483.50;4378240;32;32560;-85
2022/12/10 10:15:46;;;;;;;1.30;1.23;;;;;;;7.56;68.14;98480.12;4399860;32;33990;-85
2022/12/10 10:18:45;;;;;;;1.77;1.67;;;;;;;7.31;69.26;98488.44;4389914;32;34126;-85
2022/12/10 10:21:22;;;;;;;1.05;1.05;;;;;;;7.68;67.78;98481.25;4388520;32;32819;-85
2022/12/10 10:23:53;;;;;;;1.95;1.85;;;;;;;7.66;67.54;98477.84;4400072;32;32766;-86
2022/12/10 10:26:34;;;;;;;1.08;0.80;;;;;;;8.02;66.47;98484.69;4400321;32;33904;-86
2022/12/10 10:29:15;;;;;;;3.25;1.62;;;;;;;8.20;65.67;98488.94;4377954;32;33067;-87
2022/12/10 10:31:46;;;;;;;2.87;1.33;;;;;;;8.15;65.78;98496.25;4401100;32;33635;-86
2022/12/10 10:34:22;;;;;;;0.77;0.77;;;;;;;8.18;65.46;98496.09;4376828;32;33688;-85
2022/12/10 10:37:00;;;;;;;2.90;2.70;;;;;;;8.32;65.19;98493.53;4362472;32;33641;-85
2022/12/10 10:42:11;;;;;;;2.62;2.35;;;;;;;8.09;66.13;98497.44;4387058;32;34507;-86
2022/12/10 10:44:45;;;;;;;2.50;2.40;;;;;;;8.01;66.35;98496.12;4389284;32;34829;-86
2022/12/10 10:47:32;;;;;;;3.72;3.40;;;;;;;8.10;66.52;98503.53;4390811;32;34530;-86
2022/12/10 10:50:04;;;;;;;2.65;1.77;;;;;;;8.20;66.13;98502.94;4388689;32;33559;-85
2022/12/10 10:52:38;;;;;;;4.47;3.22;;;;;;;8.07;66.91;98495.78;4388600;32;32516;-85
2022/12/10 10:55:31;;;;;;;2.37;2.28;;;;;;;8.09;66.62;98496.59;4376465;32;32285;-86
2022/12/10 10:58:05;;;;;;;2.67;2.53;;;;;;;8.03;67.08;98494.28;4409301;32;32387;-86
2022/12/10 11:00:34;;;;;;;1.15;1.15;;;;;;;8.26;66.05;98483.38;4387907;32;33305;-85
2022/12/10 11:03:12;;;;;;;1.08;1.08;;;;;;;8.14;66.35;98478.78;4378553;32;32853;-85
2022/12/10 11:05:45;;;;;;;4.30;1.98;;;;;;;8.17;66.70;98478.63;4389180;32;34186;-85
2022/12/10 11:08:20;;;;;;;2.85;2.65;;;;;;;8.12;66.73;98467.50;4387941;32;32808;-85
2022/12/10 11:11:05;;;;;;;2.03;1.85;;;;;;;8.12;66.89;98464.88;4392810;32;31988;-85
2022/12/10 11:13:35;;;;;;;2.10;1.55;;;;;;;8.15;66.87;98472.56;4396709;32;32540;-85
2022/12/10 11:16:28;;;;;;;0.40;0.40;;;;;;;8.29;66.41;98472.66;4388965;32;33827;-85
2022/12/10 11:21:38;;;;;;;1.50;1.40;;;;;;;8.19;66.64;98463.59;4389348;32;34203;-85
2022/12/10 11:24:11;;;;;;;2.72;1.75;;;;;;;8.49;65.35;98465.47;4381627;32;32426;-85
2022/12/10 11:27:04;;;;;;;4.05;2.50;;;;;;;8.18;65.78;98456.66;4376023;32;31169;-85
2022/12/10 11:29:58;;;;;;;1.02;1.02;;;;;;;8.43;64.94;98449.09;4389232;32;32194;-85
2022/12/10 11:32:52;;;;;;;2.85;2.00;;;;;;;8.28;65.48;98447.31;4371379;32;32583;-85
2022/12/10 11:35:31;;;;;;;1.05;1.05;;;;;;;8.34;65.18;98438.22;4398670;32;33153;-85
2022/12/10 11:38:23;;;;;;;0.65;0.65;;;;;;;8.12;66.25;98428.06;4389428;32;33893;-84
2022/12/10 11:41:15;;;;;;;4.68;2.65;;;;;;;8.02;66.67;98417.19;4387225;32;32809;-84
2022/12/10 11:43:53;;;;;;;13.18;2.50;;;;;;;8.17;66.49;98415.50;4388011;32;34590;-84
2022/12/10 11:46:42;;;;;;;0.50;0.50;;;;;;;8.35;65.70;98403.94;4399825;32;34633;-84
2022/12/10 11:49:42;;;;;;;1.70;1.60;;;;;;;8.12;66.88;98402.63;4389654;32;34308;-84
2022/12/10 11:55:36;;;;;;;3.72;1.40;;;;;;;8.50;65.36;98385.59;4395507;32;34428;-84
2022/12/10 12:01:13;;;;;;;1.55;1.45;;;;;;;8.12;66.81;98386.00;4389285;32;31684;-84
2022/12/10 12:03:53;;;;;;;2.50;1.73;;;;;;;8.14;67.38;98392.84;4400815;32;33032;-85
2022/12/10 12:06:58;;;;;;;0.62;0.62;;;;;;;8.05;67.59;98395.16;4400177;32;34703;-85
2022/12/10 12:10:17;;;;;;;3.80;1.35;;;;;;;8.07;67.40;98382.75;4387610;32;33033;-84
2022/12/10 12:13:12;;;;;;;0.98;0.98;;;;;;;8.30;66.90;98386.72;4362694;32;31582;-84
2022/12/10 12:15:48;;;;;;;2.33;1.45;;;;;;;8.21;67.09;98380.19;4388450;32;33184;-86
2022/12/10 12:18:23;;;;;;;1.42;1.35;;;;;;;8.10;66.96;98388.69;4388680;32;32730;-87
2022/12/10 12:20:58;;;;;;;2.95;2.40;;;;;;;8.36;66.53;98373.25;4390402;32;32611;-86
2022/12/10 12:23:54;;;;;;;0.52;0.52;;;;;;;8.33;66.57;98370.78;4361271;32;31776;-85
2022/12/10 12:26:42;;;;;;;2.72;2.35;;;;;;;8.41;65.75;98365.97;4398283;32;33139;-86
2022/12/10 12:29:16;;;;;;;0.90;0.90;;;;;;;7.96;67.96;98365.81;4362587;32;35182;-86
2022/12/10 12:32:16;;;;;;;1.37;1.27;;;;;;;7.75;68.47;98372.28;4399321;32;33487;-86
2022/12/10 12:37:39;;;;;;;1.45;1.45;;;;;;;8.22;65.93;98355.63;4384953;32;33293;-86
2022/12/10 12:40:21;;;;;;;1.27;1.27;;;;;;;8.16;66.46;98361.22;4386747;32;33901;-86
2022/12/10 12:43:08;;;;;;;1.83;1.75;;;;;;;7.84;67.85;98361.25;4380248;32;32734;-86
2022/12/10 12:45:53;;;;;;;1.55;1.45;;;;;;;7.98;67.58;98367.53;4400870;32;32328;-85
2022/12/10 12:48:28;;;;;;;1.87;1.55;;;;;;;7.90;68.07;98366.16;4397971;32;34607;-86
2022/12/10 12:51:09;;;;;;;1.20;1.20;;;;;;;7.79;68.33;98368.53;4388021;32;33393;-87
2022/12/10 12:53:40;;;;;;;2.72;2.58;;;;;;;8.03;67.24;98373.38;4387524;32;33087;-87
2022/12/10 12:56:31;;;;;;;4.85;3.55;;;;;;;7.82;68.07;98373.62;4386955;32;33335;-86
2022/12/10 12:59:04;;;;;;;4.47;4.07;;;;;;;7.68;68.40;98378.78;4400368;32;33916;-87
2022/12/10 13:01:56;;;;;;;2.50;2.40;;;;;;;7.96;68.02;98378.94;4390288;32;33744;-87
2022/12/10 13:04:29;;;;;;;0.75;0.75;;;;;;;7.67;68.73;98393.69;4389286;32;33588;-87